Sneeuw/IJzel/Bevriezing van: 24-01-2019 10:00 tot: 25-01-2019 12:00 waarschuwing voor: Sneeuw/IJzel/Bevriezing niveau: Geel info button
Lokale gladheid door sneeuwresten en/of bevriezing van natte weggedeelten.Kans op gladheid.Alle verkeersdeelnemers kunnen hinder ondervinden.Pas uw rijgedrag aan.Volg weerberichten en waarschuwingen.









webcam  webcam


webcam 2   webcam 2


Onweer radar Meer informatie blitzortung!


waarschuwing voor winterse neerslag Meer informatie rain snow radar


Bezoek onze andere website:

Template documentation
and downloads

And another site

weerstation wsnoordbergum

weerstationlembeke



METAR rapporten vliegvelden

   
EHAM - Amsterdam
Gewijzigd: 24-01-2019 10:25
Grotendeels bewolkt  
Grotendeels bewolkt  
   Wind: ZO 11.1 km/h
Wind: ZO 11.1 km/h
Temperatuur: -1°C
Voelt als: -5°C
Dauwpunt: -4°C
Vochtigheid: 80%
Barometer: 1010 hPa
Bewolking: Grotendeels bewolkt
Zicht: 7 km
Bewolking: Gedeeltelijk bewolkt 1700 ft,
Grotendeels bewolkt 4500 ft
EHAM 240925Z 13006KT 100V160 7000 SCT017 BKN045 M01/M04 Q1010 TEMPO BKN017
EHRD - Rotterdam
Gewijzigd: 24-01-2019 10:25
Bewolking  
Bewolking  
   Wind: ZZO 13 km/h
Wind: ZZO 13 km/h
Temperatuur: 0°C
Voelt als: -4°C
Dauwpunt: -2°C
Vochtigheid: 87%
Barometer: 1010 hPa
Bewolking: Bewolking
Zicht: 7 km
Bewolking: Licht bewolkt 2800 ft,
Bewolking 4700 ft
EHRD 240925Z AUTO 16007KT 7000 FEW028 OVC047 00/M02 Q1010 R06/1///95 NOSIG
EHLW - Leeuwarden
Gewijzigd: 24-01-2019 10:41
Nevel, Bewolking  
Nevel, Bewolking  
   Wind: ZO 13 km/h
Wind: ZO 13 km/h
Temperatuur: -4°C
Voelt als: -9°C
Dauwpunt: -7°C
Vochtigheid: 80%
Barometer: 1011 hPa
Bewolking: Bewolking
Zicht: 5 km
Bewolking: Bewolking 1100 ft
EHLW 240941Z AUTO 14007KT 120V180 4800 BR OVC011 M04/M07 Q1011 GRN
EHGG - Groningen
Gewijzigd: 24-01-2019 10:25
Nevel, Bewolking  
Nevel, Bewolking  
   Wind: OZO 9.3 km/h
Wind: OZO 9.3 km/h
Temperatuur: -5°C
Voelt als: -9°C
Dauwpunt: -8°C
Vochtigheid: 80%
Barometer: 1011 hPa
Bewolking: Bewolking
Zicht: 5 km
Bewolking: Bewolking 1300 ft
EHGG 240925Z AUTO 11005KT 070V150 4500 BR OVC013 M05/M08 Q1011 R05/010095 TEMPO 6000
  

Script ontwikkeld door  Saratoga-weather.org Aangepast voor de template door  Weerstation Leuven

U vindt ons ook hier:

Het Weer Aktueel

European Weather Network

WeatherCloud

Weather Underground

AWEKAS

HAMweather, WeatherForYou, PWS Weather

Apparatuur in gebruik:

Weerstation
Davis VP2

Weerprogramma
Meteobridge

Weercomputer
Asus WL -330N3G

Webleverancier
Hostnet

Davis VP2

Meteobridge

Asus WL -330N3G

Hostnet